createdAt,value
2018-04-16T10:28:43.811Z,58.40
2018-04-16T10:31:29.326Z,59.10
2018-04-16T10:34:14.147Z,59.00
2018-04-16T10:36:59.786Z,61.20
2018-04-16T10:39:44.546Z,61.20
2018-04-16T10:42:29.404Z,62.90
2018-04-16T10:45:14.109Z,59.20
2018-04-16T10:47:58.860Z,58.80
2018-04-16T10:50:43.703Z,58.60
2018-04-16T10:53:28.546Z,60.60
2018-04-16T10:56:13.358Z,62.10
2018-04-16T10:58:58.094Z,59.60
2018-04-16T11:01:42.852Z,62.20
2018-04-16T11:04:27.782Z,62.00
2018-04-16T11:07:13.218Z,64.40
2018-04-16T11:09:57.894Z,64.40
2018-04-16T11:12:43.558Z,61.40
2018-04-16T11:15:28.873Z,61.40
2018-04-16T11:18:14.310Z,62.80
2018-04-16T11:20:59.058Z,62.80
2018-04-16T11:23:43.807Z,61.20
2018-04-16T11:26:28.713Z,59.50
2018-04-16T11:29:13.344Z,58.50
2018-04-16T11:31:58.133Z,60.30
2018-04-16T11:34:42.905Z,57.40
2018-04-16T11:37:27.760Z,54.90
2018-04-16T11:40:12.592Z,57.30
2018-04-16T11:42:57.468Z,57.40
2018-04-16T11:45:42.232Z,54.40
2018-04-16T11:48:27.147Z,57.30
2018-04-16T11:51:12.630Z,53.60
2018-04-16T11:53:58.208Z,54.30
2018-04-16T11:56:42.921Z,54.30
2018-04-16T11:59:27.732Z,55.10
2018-04-16T12:02:12.473Z,54.60
2018-04-16T12:04:57.255Z,57.40
2018-04-16T12:07:42.083Z,59.00
2018-04-16T12:10:27.063Z,57.60
2018-04-16T12:13:12.773Z,56.90
2018-04-16T12:15:58.126Z,57.50
2018-04-16T12:18:42.944Z,57.40
2018-04-16T12:21:28.115Z,58.30
2018-04-16T12:24:12.905Z,58.50
2018-04-16T12:26:56.372Z,57.00
2018-04-16T12:39:14.636Z,55.50
2018-04-16T12:41:46.862Z,57.60
2018-04-16T12:44:19.157Z,54.10
2018-04-16T12:46:51.195Z,54.20
2018-04-16T12:49:24.038Z,55.70
2018-04-16T12:51:56.654Z,55.60
2018-04-16T12:54:29.713Z,58.50
2018-04-16T12:57:02.050Z,57.50
2018-04-16T12:59:34.258Z,57.00
2018-04-16T13:02:06.580Z,55.30
2018-04-16T13:04:38.837Z,57.60
2018-04-16T13:07:11.685Z,56.50
2018-04-16T13:09:43.788Z,56.40
2018-04-16T13:12:16.739Z,53.20
2018-04-16T13:14:49.032Z,53.30
2018-04-16T13:17:21.180Z,54.50
2018-04-16T13:19:53.291Z,53.10
2018-04-16T13:22:26.208Z,56.10
2018-04-16T13:24:58.317Z,56.00
2018-04-16T13:27:30.477Z,55.80
2018-04-16T13:30:03.552Z,55.00
2018-04-16T13:32:35.655Z,55.00
2018-04-16T13:35:08.550Z,56.20
2018-04-16T13:37:41.705Z,56.40
2018-04-16T13:40:13.813Z,56.40
2018-04-16T13:42:45.897Z,57.00
2018-04-16T13:45:17.991Z,57.00
2018-04-16T13:47:50.053Z,55.60
2018-04-16T13:50:22.422Z,54.30
2018-04-16T13:52:54.529Z,52.70
2018-04-16T13:55:27.416Z,53.70
2018-04-16T13:58:00.338Z,52.50
2018-04-16T14:00:32.918Z,52.50
2018-04-16T14:03:05.111Z,52.50
2018-04-16T14:05:37.396Z,52.70
2018-04-16T14:08:09.686Z,54.30
2018-04-16T14:10:42.558Z,55.30
2018-04-16T14:13:14.887Z,55.20
2018-04-16T14:15:47.302Z,54.20
2018-04-16T14:18:19.575Z,55.00
2018-04-16T14:20:51.672Z,55.50
2018-04-16T14:23:23.804Z,54.60
2018-04-16T14:25:55.916Z,54.70
2018-04-16T14:28:28.105Z,54.80
2018-04-16T14:31:01.330Z,54.80
2018-04-16T14:33:33.437Z,56.70
2018-04-16T14:36:05.684Z,56.10
2018-04-16T14:38:38.769Z,56.10
2018-04-16T14:41:11.635Z,56.50
2018-04-16T14:43:44.290Z,56.40
2018-04-16T14:46:17.578Z,56.70
2018-04-16T14:48:49.832Z,55.00
2018-04-16T14:51:22.836Z,53.50
2018-04-16T14:53:55.002Z,53.10
2018-04-16T14:56:27.193Z,53.50
2018-04-16T14:58:59.394Z,53.10
2018-04-16T15:01:32.332Z,52.80
2018-04-16T15:04:10.193Z,52.80
2018-04-16T15:06:42.418Z,53.60
2018-04-16T15:09:15.582Z,53.30
2018-04-16T15:11:47.909Z,54.20
2018-04-16T15:14:20.989Z,53.40
2018-04-16T15:16:53.931Z,53.80
2018-04-16T15:19:26.114Z,53.80
2018-04-16T15:21:58.183Z,51.30
2018-04-16T15:24:30.250Z,53.00
2018-04-16T15:27:02.631Z,53.50
2018-04-16T15:29:34.874Z,54.40
2018-04-16T15:32:06.968Z,53.40
2018-04-16T15:34:39.287Z,53.30
2018-04-16T15:37:11.402Z,54.20
2018-04-16T15:39:43.544Z,54.40
2018-04-16T15:42:15.720Z,56.20
2018-04-16T15:44:47.850Z,55.50
2018-04-16T15:47:19.970Z,55.40
2018-04-16T15:49:52.296Z,55.90
2018-04-16T15:52:24.504Z,56.10
2018-04-16T15:54:56.927Z,54.80
2018-04-16T15:57:29.058Z,55.30
2018-04-16T16:00:01.468Z,56.10
2018-04-16T16:02:34.208Z,53.60
2018-04-16T16:05:06.693Z,54.80
2018-04-16T16:07:39.140Z,55.80
2018-04-16T16:10:11.445Z,55.30
2018-04-16T16:12:44.373Z,56.00
2018-04-16T16:15:16.744Z,56.00
2018-04-16T16:17:49.856Z,56.40
2018-04-16T16:20:22.085Z,56.30
2018-04-16T16:22:54.217Z,55.40
2018-04-16T16:25:26.344Z,56.10
2018-04-16T16:27:58.558Z,56.10
2018-04-16T16:30:32.031Z,55.60
2018-04-16T16:33:04.320Z,55.50
2018-04-16T16:35:36.406Z,56.00
2018-04-16T16:38:09.245Z,56.30
2018-04-16T16:40:41.615Z,56.30
2018-04-16T16:43:13.690Z,56.90
2018-04-16T16:45:46.020Z,57.50
2018-04-16T16:48:18.674Z,57.90
2018-04-16T16:50:51.578Z,56.50
2018-04-16T16:53:23.857Z,56.50
2018-04-16T16:55:55.983Z,56.60
2018-04-16T16:58:28.147Z,56.70
2018-04-16T17:01:00.317Z,56.40
2018-04-16T17:03:32.468Z,57.10
2018-04-16T17:06:04.645Z,56.80
2018-04-16T17:08:37.279Z,57.30
2018-04-16T17:11:09.625Z,58.80
2018-04-16T17:13:42.700Z,58.40
2018-04-16T17:16:14.710Z,58.40
2018-04-16T17:18:46.900Z,58.40
2018-04-16T17:21:19.111Z,58.90
2018-04-16T17:26:42.592Z,59.60
2018-04-16T17:29:16.510Z,60.40
2018-04-16T17:31:49.575Z,60.80
2018-04-16T17:34:21.991Z,60.60
2018-04-16T17:36:54.236Z,60.60
2018-04-16T17:39:28.302Z,61.50
2018-04-16T17:42:00.581Z,61.40
2018-04-16T17:44:32.690Z,61.00
2018-04-16T17:47:05.617Z,61.00
2018-04-16T17:49:37.709Z,61.00
2018-04-16T17:52:09.834Z,62.10
2018-04-16T17:54:41.911Z,62.20
2018-04-16T17:57:14.108Z,62.70
2018-04-16T17:59:46.400Z,62.20
2018-04-16T18:02:18.583Z,62.70
2018-04-16T18:04:51.559Z,63.60
2018-04-16T18:07:24.419Z,63.60
2018-04-16T18:09:56.561Z,63.50
2018-04-16T18:12:28.760Z,64.00
2018-04-16T18:15:00.991Z,65.00
2018-04-16T18:17:33.157Z,64.60
2018-04-16T18:20:05.870Z,64.10
2018-04-16T18:22:38.309Z,63.70
2018-04-16T18:25:10.349Z,64.40
2018-04-16T18:27:43.217Z,65.80
2018-04-16T18:30:16.598Z,66.40
2018-04-16T18:32:48.730Z,65.70
2018-04-16T18:35:20.809Z,66.30
2018-04-16T18:37:53.091Z,67.20
2018-04-16T18:40:25.225Z,65.70
2018-04-16T18:42:57.700Z,66.40
2018-04-16T18:45:30.892Z,66.40
2018-04-16T18:48:02.995Z,66.80
2018-04-16T18:50:35.957Z,67.20
2018-04-16T18:53:08.135Z,67.20
2018-04-16T18:55:40.259Z,67.60
2018-04-16T18:58:13.156Z,68.70
2018-04-16T19:00:45.358Z,68.70
2018-04-16T19:03:17.758Z,68.40
2018-04-16T19:05:50.221Z,68.50
2018-04-16T19:08:23.122Z,68.80
2018-04-16T19:10:56.104Z,70.40
2018-04-16T19:13:28.322Z,70.40
2018-04-16T19:16:00.552Z,70.00
2018-04-16T19:18:32.582Z,71.20
2018-04-16T19:21:04.785Z,71.20
2018-04-16T19:23:37.754Z,70.50
2018-04-16T19:26:10.139Z,70.50
2018-04-16T19:28:42.365Z,70.80
2018-04-16T19:31:14.442Z,71.60
2018-04-16T19:33:46.598Z,74.00
2018-04-16T19:36:18.799Z,72.40
2018-04-16T19:38:51.904Z,77.00
2018-04-16T19:41:25.813Z,75.00
2018-04-16T19:43:58.708Z,76.50
2018-04-16T19:46:31.047Z,76.40
2018-04-16T19:49:03.402Z,76.60
2018-04-16T19:51:35.722Z,75.90
2018-04-16T19:54:08.157Z,76.90
2018-04-16T19:56:40.251Z,77.40
2018-04-16T19:59:12.496Z,77.70
2018-04-16T20:01:44.758Z,79.00
2018-04-16T20:04:17.012Z,82.30
2018-04-16T20:06:49.185Z,80.00
2018-04-16T20:09:21.352Z,80.60
2018-04-16T20:11:53.483Z,83.20
2018-04-16T20:14:25.834Z,81.60
2018-04-16T20:16:58.773Z,83.20
2018-04-16T20:19:30.923Z,83.10
2018-04-16T20:22:03.133Z,82.50
2018-04-16T20:24:35.302Z,82.50
2018-04-16T20:27:07.472Z,85.10
2018-04-16T20:29:39.596Z,83.50
2018-04-16T20:32:11.804Z,84.90
2018-04-16T20:34:43.981Z,82.80
2018-04-16T20:37:16.113Z,83.60
2018-04-16T20:39:48.316Z,84.10
2018-04-16T20:42:20.440Z,84.10
2018-04-16T20:44:52.637Z,84.60
2018-04-16T20:47:25.039Z,85.50
2018-04-16T20:49:57.979Z,85.70
2018-04-16T20:52:30.313Z,85.60
2018-04-16T20:55:03.364Z,86.40
2018-04-16T20:57:35.780Z,86.30
2018-04-16T21:00:07.992Z,86.80
2018-04-16T21:02:40.029Z,86.90
2018-04-16T21:05:12.364Z,87.10
2018-04-16T21:07:45.299Z,88.40
2018-04-16T21:10:17.445Z,88.40
2018-04-16T21:12:49.553Z,87.50
2018-04-16T21:15:21.792Z,87.60
2018-04-16T21:17:53.902Z,88.80
2018-04-16T21:20:26.159Z,88.30
2018-04-16T21:22:58.246Z,88.80
2018-04-16T21:25:30.387Z,88.40
2018-04-16T21:28:02.536Z,89.30
2018-04-16T21:30:34.703Z,88.90
2018-04-16T21:33:06.796Z,89.40
2018-04-16T21:35:39.453Z,89.30
2018-04-16T21:38:12.046Z,89.10
2018-04-16T21:40:44.327Z,89.80
2018-04-16T21:43:16.413Z,89.90
2018-04-16T21:45:49.372Z,89.60
2018-04-16T21:48:21.516Z,89.50
2018-04-16T21:50:53.696Z,88.90
2018-04-16T21:53:26.115Z,89.80
2018-04-16T21:55:59.211Z,88.40
2018-04-16T21:58:31.554Z,88.40
2018-04-16T22:01:03.794Z,89.60
2018-04-16T22:03:35.944Z,90.10
2018-04-16T22:06:08.109Z,90.10
2018-04-16T22:08:40.139Z,90.50
2018-04-16T22:11:13.065Z,90.80
2018-04-16T22:13:45.389Z,90.80
2018-04-16T22:16:17.530Z,90.90
2018-04-16T22:18:50.058Z,90.50
2018-04-16T22:21:23.153Z,91.00
2018-04-16T22:23:56.206Z,90.80
2018-04-16T22:26:28.480Z,90.70
2018-04-16T22:29:00.515Z,91.00
2018-04-16T22:31:32.785Z,91.10
2018-04-16T22:34:04.975Z,91.00
2018-04-16T22:36:37.048Z,91.20
2018-04-16T22:39:09.234Z,91.60
2018-04-16T22:41:42.310Z,91.70
2018-04-16T22:44:14.438Z,91.70
2018-04-16T22:46:46.628Z,91.80
2018-04-16T22:49:18.739Z,91.80
2018-04-16T22:51:51.092Z,92.10
2018-04-16T22:54:24.180Z,92.10
2018-04-16T22:56:57.196Z,92.10
2018-04-16T22:59:29.532Z,92.10
2018-04-16T23:02:02.359Z,91.90
2018-04-16T23:04:34.928Z,92.10
2018-04-16T23:07:07.033Z,92.10
2018-04-16T23:09:39.195Z,92.10
2018-04-16T23:12:11.999Z,92.30
2018-04-16T23:14:45.046Z,92.30
2018-04-16T23:17:17.127Z,92.40
2018-04-16T23:19:49.202Z,92.30
2018-04-16T23:22:22.020Z,92.50
2018-04-16T23:24:54.978Z,92.60
2018-04-16T23:27:27.124Z,92.60
2018-04-16T23:29:59.245Z,92.50
2018-04-16T23:32:32.117Z,92.60
2018-04-16T23:35:04.257Z,92.60
2018-04-16T23:37:36.458Z,92.80
2018-04-16T23:40:09.572Z,92.60
2018-04-16T23:42:41.909Z,92.60
2018-04-16T23:45:13.984Z,92.70
2018-04-16T23:47:46.850Z,92.60
2018-04-16T23:50:19.160Z,92.60
2018-04-16T23:52:52.076Z,93.00
2018-04-16T23:55:24.208Z,93.00
2018-04-16T23:57:57.006Z,93.00
